N1653F P08-KCHD
Flight info
| Callsign | N1653F |
|---|---|
| Flight time | N/A |
| Altitude | 4500 |
| Route | DCT |
| Aircraft | C172/L-SDFGRY/L |
Departure
| Time | N/A |
|---|---|
| Airport | P08 |
Arrival
| Time | 2026-04-19 17:44 |
|---|---|
| Airport | Chandler Municipal Airport (KCHD) |
| Time | Latitude | Longitude | Altitude | Speed | Heading |
|---|---|---|---|---|---|
| 2026-04-19 17:07 | 32.93808 | -111.42157 | 1575 ft | 0 kts | 154° |
| 2026-04-19 17:20 | 32.93803 | -111.42157 | 1575 ft | 3 kts | 198° |
| 2026-04-19 17:20 | 32.93803 | -111.42176 | 1574 ft | 5 kts | 309° |
| 2026-04-19 17:21 | 32.93832 | -111.42155 | 1575 ft | 8 kts | 59° |
| 2026-04-19 17:21 | 32.93870 | -111.42089 | 1576 ft | 8 kts | 42° |
| 2026-04-19 17:21 | 32.93931 | -111.42090 | 1577 ft | 10 kts | 38° |
| 2026-04-19 17:21 | 32.93975 | -111.42016 | 1579 ft | 12 kts | 59° |
| 2026-04-19 17:22 | 32.94017 | -111.41931 | 1581 ft | 8 kts | 54° |
| 2026-04-19 17:22 | 32.94058 | -111.41930 | 1582 ft | 0 kts | 332° |
| 2026-04-19 17:23 | 32.94074 | -111.41942 | 1582 ft | 8 kts | 329° |
| 2026-04-19 17:23 | 32.94107 | -111.42008 | 1582 ft | 10 kts | 243° |
| 2026-04-19 17:23 | 32.94104 | -111.42016 | 1582 ft | 0 kts | 240° |
| 2026-04-19 17:24 | 32.94036 | -111.42156 | 1577 ft | 42 kts | 240° |
| 2026-04-19 17:24 | 32.93825 | -111.42583 | 1599 ft | 72 kts | 237° |
| 2026-04-19 17:24 | 32.93534 | -111.43108 | 1709 ft | 80 kts | 237° |
| 2026-04-19 17:24 | 32.93223 | -111.43675 | 1874 ft | 82 kts | 238° |
| 2026-04-19 17:25 | 32.93088 | -111.44287 | 2070 ft | 77 kts | 278° |
| 2026-04-19 17:25 | 32.93325 | -111.44876 | 2186 ft | 85 kts | 316° |
| 2026-04-19 17:25 | 32.93869 | -111.45186 | 2323 ft | 91 kts | 350° |
| 2026-04-19 17:25 | 32.94485 | -111.45236 | 2542 ft | 86 kts | 355° |
| 2026-04-19 17:26 | 32.95065 | -111.45272 | 2749 ft | 81 kts | 354° |
| 2026-04-19 17:26 | 32.95638 | -111.45329 | 2901 ft | 84 kts | 346° |
| 2026-04-19 17:26 | 32.96117 | -111.45681 | 3044 ft | 83 kts | 315° |
| 2026-04-19 17:26 | 32.96562 | -111.46145 | 3181 ft | 87 kts | 317° |
| 2026-04-19 17:27 | 32.97012 | -111.46631 | 3326 ft | 88 kts | 316° |
| 2026-04-19 17:27 | 32.97171 | -111.46806 | 3378 ft | 89 kts | 316° |
| 2026-04-19 17:27 | 32.97607 | -111.47291 | 3521 ft | 89 kts | 315° |
| 2026-04-19 17:27 | 32.98054 | -111.47797 | 3670 ft | 88 kts | 315° |
| 2026-04-19 17:28 | 32.98500 | -111.48304 | 3821 ft | 89 kts | 315° |
| 2026-04-19 17:28 | 32.98946 | -111.48814 | 3969 ft | 88 kts | 315° |
| 2026-04-19 17:28 | 32.99385 | -111.49318 | 4117 ft | 87 kts | 314° |
| 2026-04-19 17:28 | 32.99818 | -111.49815 | 4266 ft | 86 kts | 314° |
| 2026-04-19 17:29 | 33.00243 | -111.50305 | 4412 ft | 84 kts | 314° |
| 2026-04-19 17:29 | 33.00672 | -111.50799 | 4498 ft | 91 kts | 315° |
| 2026-04-19 17:29 | 33.01154 | -111.51345 | 4510 ft | 99 kts | 315° |
| 2026-04-19 17:29 | 33.01667 | -111.51931 | 4510 ft | 104 kts | 315° |
| 2026-04-19 17:30 | 33.02198 | -111.52540 | 4511 ft | 108 kts | 315° |
| 2026-04-19 17:30 | 33.02745 | -111.53167 | 4510 ft | 110 kts | 315° |
| 2026-04-19 17:30 | 33.03292 | -111.53795 | 4511 ft | 110 kts | 315° |
| 2026-04-19 17:30 | 33.03843 | -111.54429 | 4508 ft | 109 kts | 315° |
| 2026-04-19 17:31 | 33.04387 | -111.55055 | 4508 ft | 109 kts | 315° |
| 2026-04-19 17:31 | 33.04927 | -111.55678 | 4506 ft | 108 kts | 315° |
| 2026-04-19 17:31 | 33.05466 | -111.56299 | 4507 ft | 108 kts | 315° |
| 2026-04-19 17:31 | 33.06003 | -111.56918 | 4506 ft | 108 kts | 315° |
| 2026-04-19 17:32 | 33.06540 | -111.57538 | 4505 ft | 107 kts | 315° |
| 2026-04-19 17:32 | 33.07076 | -111.58156 | 4500 ft | 107 kts | 315° |
| 2026-04-19 17:32 | 33.07607 | -111.58769 | 4500 ft | 106 kts | 315° |
| 2026-04-19 17:32 | 33.08136 | -111.59379 | 4498 ft | 106 kts | 315° |
| 2026-04-19 17:33 | 33.08663 | -111.59988 | 4497 ft | 105 kts | 315° |
| 2026-04-19 17:33 | 33.09182 | -111.60587 | 4496 ft | 105 kts | 315° |
| 2026-04-19 17:33 | 33.09713 | -111.61200 | 4495 ft | 105 kts | 315° |
| 2026-04-19 17:33 | 33.10238 | -111.61807 | 4495 ft | 105 kts | 315° |
| 2026-04-19 17:34 | 33.10757 | -111.62406 | 4495 ft | 105 kts | 315° |
| 2026-04-19 17:34 | 33.11284 | -111.63015 | 4497 ft | 106 kts | 315° |
| 2026-04-19 17:34 | 33.11812 | -111.63625 | 4498 ft | 106 kts | 315° |
| 2026-04-19 17:34 | 33.12341 | -111.64236 | 4497 ft | 106 kts | 315° |
| 2026-04-19 17:35 | 33.12869 | -111.64847 | 4498 ft | 106 kts | 315° |
| 2026-04-19 17:35 | 33.13399 | -111.65459 | 4496 ft | 106 kts | 315° |
| 2026-04-19 17:35 | 33.13900 | -111.66038 | 4498 ft | 106 kts | 315° |
| 2026-04-19 17:35 | 33.14398 | -111.66614 | 4497 ft | 106 kts | 315° |
| 2026-04-19 17:36 | 33.14926 | -111.67225 | 4499 ft | 106 kts | 315° |
| 2026-04-19 17:36 | 33.15459 | -111.67841 | 4498 ft | 106 kts | 315° |
| 2026-04-19 17:36 | 33.15993 | -111.68458 | 4498 ft | 107 kts | 315° |
| 2026-04-19 17:36 | 33.16523 | -111.69072 | 4500 ft | 106 kts | 315° |
| 2026-04-19 17:37 | 33.17058 | -111.69692 | 4457 ft | 109 kts | 315° |
| 2026-04-19 17:37 | 33.17610 | -111.70327 | 4370 ft | 110 kts | 315° |
| 2026-04-19 17:37 | 33.18159 | -111.70962 | 4311 ft | 110 kts | 315° |
| 2026-04-19 17:37 | 33.18709 | -111.71597 | 4243 ft | 113 kts | 315° |
| 2026-04-19 17:38 | 33.19278 | -111.72255 | 4169 ft | 113 kts | 315° |
| 2026-04-19 17:38 | 33.19850 | -111.72916 | 4051 ft | 115 kts | 315° |
| 2026-04-19 17:38 | 33.20425 | -111.73580 | 3926 ft | 115 kts | 315° |
| 2026-04-19 17:38 | 33.20935 | -111.74301 | 3801 ft | 114 kts | 300° |
| 2026-04-19 17:39 | 33.21239 | -111.75188 | 3636 ft | 117 kts | 290° |
| 2026-04-19 17:39 | 33.21513 | -111.76107 | 3480 ft | 118 kts | 290° |
| 2026-04-19 17:39 | 33.21804 | -111.77024 | 3320 ft | 118 kts | 291° |
| 2026-04-19 17:39 | 33.22113 | -111.77922 | 3160 ft | 116 kts | 294° |
| 2026-04-19 17:40 | 33.22455 | -111.78803 | 2950 ft | 117 kts | 295° |
| 2026-04-19 17:40 | 33.22833 | -111.79645 | 2779 ft | 112 kts | 305° |
| 2026-04-19 17:40 | 33.23379 | -111.80288 | 2575 ft | 113 kts | 324° |
| 2026-04-19 17:40 | 33.24099 | -111.80666 | 2394 ft | 113 kts | 347° |
| 2026-04-19 17:41 | 33.24873 | -111.80611 | 2228 ft | 114 kts | 24° |
| 2026-04-19 17:41 | 33.25407 | -111.79979 | 2184 ft | 105 kts | 54° |
| 2026-04-19 17:41 | 33.25846 | -111.79275 | 2084 ft | 106 kts | 52° |
| 2026-04-19 17:41 | 33.26311 | -111.78586 | 1979 ft | 106 kts | 49° |
| 2026-04-19 17:42 | 33.26793 | -111.77931 | 1906 ft | 104 kts | 49° |
| 2026-04-19 17:42 | 33.27261 | -111.77278 | 1878 ft | 100 kts | 48° |
| 2026-04-19 17:42 | 33.27745 | -111.76855 | 1948 ft | 82 kts | 356° |
| 2026-04-19 17:42 | 33.28222 | -111.77198 | 1890 ft | 85 kts | 317° |
| 2026-04-19 17:43 | 33.28674 | -111.77679 | 1823 ft | 84 kts | 311° |
| 2026-04-19 17:43 | 33.28771 | -111.78295 | 1727 ft | 82 kts | 243° |
| 2026-04-19 17:43 | 33.28533 | -111.78681 | 1618 ft | 86 kts | 231° |
| 2026-04-19 17:43 | 33.28158 | -111.79219 | 1517 ft | 84 kts | 236° |
| 2026-04-19 17:44 | 33.27789 | -111.79725 | 1384 ft | 82 kts | 232° |
| 2026-04-19 17:44 | 33.27434 | -111.80221 | 1261 ft | 75 kts | 232° |
| 2026-04-19 17:44 | 33.27138 | -111.80633 | 1247 ft | 56 kts | 228° |
| 2026-04-19 17:44 | 33.26916 | -111.80938 | 1251 ft | 41 kts | 229° |
| 2026-04-19 17:45 | 33.26828 | -111.81103 | 1242 ft | 15 kts | 311° |
| 2026-04-19 17:45 | 33.26907 | -111.81185 | 1237 ft | 13 kts | 320° |
| 2026-04-19 17:45 | 33.26925 | -111.81203 | 1242 ft | 0 kts | 319° |
| 2026-04-19 17:46 | 33.26953 | -111.81231 | 1236 ft | 13 kts | 321° |
| 2026-04-19 17:46 | 33.27018 | -111.81266 | 1243 ft | 10 kts | 43° |
| 2026-04-19 17:46 | 33.27082 | -111.81179 | 1244 ft | 18 kts | 49° |
| 2026-04-19 17:47 | 33.27145 | -111.81118 | 1240 ft | 9 kts | 327° |
| 2026-04-19 17:47 | 33.27210 | -111.81100 | 1247 ft | 14 kts | 50° |
| 2026-04-19 17:47 | 33.27262 | -111.81026 | 1243 ft | 10 kts | 45° |
| 2026-04-19 17:47 | 33.27302 | -111.80999 | 1240 ft | 0 kts | 64° |